createdAt,value
2018-02-27T00:00:27.285Z,-7.00
2018-02-27T00:02:54.857Z,-6.90
2018-02-27T00:05:22.444Z,-6.80
2018-02-27T00:07:50.012Z,-7.00
2018-02-27T00:10:17.608Z,-6.80
2018-02-27T00:12:45.177Z,-6.80
2018-02-27T00:15:12.772Z,-6.90
2018-02-27T00:17:40.339Z,-6.90
2018-02-27T00:20:07.938Z,-7.00
2018-02-27T00:22:35.525Z,-7.00
2018-02-27T00:25:03.114Z,-7.00
2018-02-27T00:27:30.683Z,-7.10
2018-02-27T00:29:59.278Z,-7.00
2018-02-27T00:32:26.840Z,-7.00
2018-02-27T00:34:54.427Z,-7.00
2018-02-27T00:37:22.002Z,-7.10
2018-02-27T00:39:49.576Z,-7.20
2018-02-27T00:42:17.169Z,-7.20
2018-02-27T00:44:44.748Z,-7.10
2018-02-27T00:47:12.350Z,-7.20
2018-02-27T00:49:40.691Z,-7.20
2018-02-27T00:52:08.293Z,-7.20
2018-02-27T00:54:36.636Z,-7.20
2018-02-27T00:57:04.230Z,-7.30
2018-02-27T00:59:31.801Z,-7.30
2018-02-27T01:01:59.385Z,-7.20
2018-02-27T01:04:26.954Z,-7.20
2018-02-27T01:06:59.373Z,-7.20
2018-02-27T01:09:27.714Z,-7.30
2018-02-27T01:11:55.304Z,-7.30
2018-02-27T01:14:23.642Z,-7.20
2018-02-27T01:16:51.228Z,-7.20
2018-02-27T01:19:18.798Z,-7.20
2018-02-27T01:21:47.148Z,-7.40
2018-02-27T01:24:14.716Z,-7.40
2018-02-27T01:26:42.309Z,-7.30
2018-02-27T01:29:09.877Z,-7.40
2018-02-27T01:31:37.476Z,-7.40
2018-02-27T01:34:05.041Z,-7.50
2018-02-27T01:36:32.643Z,-7.60
2018-02-27T01:39:00.216Z,-7.40
2018-02-27T01:41:27.816Z,-7.40
2018-02-27T01:43:55.388Z,-7.50
2018-02-27T01:46:22.965Z,-7.50
2018-02-27T01:48:51.321Z,-7.60
2018-02-27T01:51:18.891Z,-7.60
2018-02-27T01:53:46.484Z,-7.60
2018-02-27T01:56:14.246Z,-7.50
2018-02-27T01:58:41.833Z,-7.60
2018-02-27T02:01:09.401Z,-7.60
2018-02-27T02:03:37.019Z,-7.40
2018-02-27T02:06:04.592Z,-7.50
2018-02-27T02:08:32.188Z,-7.40
2018-02-27T02:10:59.762Z,-7.60
2018-02-27T02:13:27.357Z,-7.60
2018-02-27T02:15:54.945Z,-7.70
2018-02-27T02:18:22.543Z,-7.70
2018-02-27T02:20:50.121Z,-7.60
2018-02-27T02:23:18.482Z,-7.60
2018-02-27T02:25:46.048Z,-7.60
2018-02-27T02:28:13.638Z,-7.70
2018-02-27T02:30:41.206Z,-7.70
2018-02-27T02:33:08.805Z,-7.60
2018-02-27T02:35:36.388Z,-7.50
2018-02-27T02:38:04.829Z,-7.60
2018-02-27T02:40:32.416Z,-7.60
2018-02-27T02:43:00.010Z,-7.60
2018-02-27T02:45:27.578Z,-7.60
2018-02-27T02:47:55.185Z,-7.60
2018-02-27T02:50:22.753Z,-7.50
2018-02-27T02:52:50.325Z,-7.60
2018-02-27T02:55:17.921Z,-7.60
2018-02-27T02:57:46.257Z,-7.60
2018-02-27T03:00:15.013Z,-7.70
2018-02-27T03:02:42.581Z,-7.70
2018-02-27T03:05:11.684Z,-7.80
2018-02-27T03:07:39.250Z,-7.80
2018-02-27T03:10:06.846Z,-7.70
2018-02-27T03:12:34.415Z,-7.70
2018-02-27T03:15:02.015Z,-7.70
2018-02-27T03:17:29.576Z,-7.70
2018-02-27T03:19:57.173Z,-7.60
2018-02-27T03:22:24.741Z,-7.70
2018-02-27T03:24:52.332Z,-7.60
2018-02-27T03:27:19.904Z,-7.70
2018-02-27T03:29:47.500Z,-7.70
2018-02-27T03:32:15.833Z,-7.90
2018-02-27T03:34:43.424Z,-7.90
2018-02-27T03:37:10.988Z,-7.90
2018-02-27T03:39:38.569Z,-8.00
2018-02-27T03:42:06.142Z,-7.90
2018-02-27T03:44:33.725Z,-7.90
2018-02-27T03:47:01.290Z,-8.00
2018-02-27T03:49:28.881Z,-7.90
2018-02-27T03:51:56.452Z,-7.80
2018-02-27T03:54:24.797Z,-7.90
2018-02-27T03:56:52.376Z,-7.90
2018-02-27T03:59:19.954Z,-7.90
2018-02-27T04:01:47.542Z,-8.00
2018-02-27T04:04:15.109Z,-8.10
2018-02-27T04:06:42.698Z,-8.10
2018-02-27T04:09:10.262Z,-8.10
2018-02-27T04:11:37.848Z,-8.20
2018-02-27T04:14:05.664Z,-8.10
2018-02-27T04:16:33.262Z,-8.10
2018-02-27T04:19:00.829Z,-8.10
2018-02-27T04:21:28.416Z,-8.10
2018-02-27T04:23:55.981Z,-8.10
2018-02-27T04:26:23.568Z,-8.00
2018-02-27T04:28:51.139Z,-8.00
2018-02-27T04:31:18.748Z,-8.00
2018-02-27T04:33:46.320Z,-8.10
2018-02-27T04:36:13.908Z,-8.00
2018-02-27T04:38:41.481Z,-8.00
2018-02-27T04:41:09.090Z,-8.10
2018-02-27T04:43:36.666Z,-8.00
2018-02-27T04:46:04.264Z,-8.10
2018-02-27T04:48:31.856Z,-8.20
2018-02-27T04:50:59.446Z,-8.10
2018-02-27T04:53:27.012Z,-8.10
2018-02-27T04:55:54.614Z,-8.00
2018-02-27T04:58:22.953Z,-8.00
2018-02-27T05:00:50.549Z,-8.00
2018-02-27T05:03:18.120Z,-8.00
2018-02-27T05:05:45.706Z,-8.00
2018-02-27T05:08:13.275Z,-8.00
2018-02-27T05:10:40.870Z,-8.10
2018-02-27T05:13:09.208Z,-8.20
2018-02-27T05:15:36.792Z,-8.20
2018-02-27T05:18:05.148Z,-8.10
2018-02-27T05:20:32.793Z,-8.30
2018-02-27T05:23:01.272Z,-8.20
2018-02-27T05:25:29.438Z,-8.10
2018-02-27T05:27:58.061Z,-8.20
2018-02-27T05:30:25.682Z,-8.20
2018-02-27T05:32:53.269Z,-8.20
2018-02-27T05:35:20.828Z,-8.20
2018-02-27T05:37:48.421Z,-8.30
2018-02-27T05:40:16.762Z,-8.20
2018-02-27T05:42:44.352Z,-8.30
2018-02-27T05:45:11.928Z,-8.10
2018-02-27T05:47:39.534Z,-8.20
2018-02-27T05:50:07.111Z,-8.20
2018-02-27T05:52:34.702Z,-8.20
2018-02-27T05:55:03.030Z,-8.40
2018-02-27T05:57:30.618Z,-8.50
2018-02-27T05:59:58.193Z,-8.40
2018-02-27T06:02:25.818Z,-8.30
2018-02-27T06:04:53.384Z,-8.30
2018-02-27T06:07:21.009Z,-8.40
2018-02-27T06:09:48.577Z,-8.40
2018-02-27T06:12:16.176Z,-8.30
2018-02-27T06:14:43.745Z,-8.30
2018-02-27T06:17:12.105Z,-8.30
2018-02-27T06:19:39.688Z,-8.30
2018-02-27T06:22:07.282Z,-8.20
2018-02-27T06:24:34.853Z,-8.20
2018-02-27T06:27:02.467Z,-8.10
2018-02-27T06:29:31.616Z,-8.00
2018-02-27T06:31:59.204Z,-8.00
2018-02-27T06:34:26.771Z,-7.90
2018-02-27T06:36:54.374Z,-7.90
2018-02-27T06:39:21.946Z,-7.70
2018-02-27T06:41:49.543Z,-7.60
2018-02-27T06:44:17.109Z,-7.60
2018-02-27T06:46:45.468Z,-7.70
2018-02-27T06:49:13.033Z,-7.70
2018-02-27T06:51:40.606Z,-7.60
2018-02-27T06:54:08.211Z,-7.80
2018-02-27T06:56:35.773Z,-7.80
2018-02-27T06:59:03.368Z,-7.70
2018-02-27T07:01:30.936Z,-7.70
2018-02-27T07:03:58.529Z,-7.70
2018-02-27T07:06:26.093Z,-7.80
2018-02-27T07:08:53.693Z,-7.70
2018-02-27T07:11:21.278Z,-7.60
2018-02-27T07:13:49.646Z,-7.50
2018-02-27T07:16:17.213Z,-7.60
2018-02-27T07:18:44.803Z,-7.60
2018-02-27T07:21:12.555Z,-7.60
2018-02-27T07:23:40.145Z,-7.30
2018-02-27T07:26:07.727Z,-7.40
2018-02-27T07:28:36.096Z,-7.40
2018-02-27T07:31:03.657Z,-7.40
2018-02-27T07:33:31.261Z,-7.30
2018-02-27T07:35:58.838Z,-7.30
2018-02-27T07:38:26.462Z,-7.30
2018-02-27T07:40:54.034Z,-7.20
2018-02-27T07:43:21.637Z,-7.00
2018-02-27T07:45:49.208Z,-7.00
2018-02-27T07:48:16.798Z,-6.90
2018-02-27T07:50:44.377Z,-7.00
2018-02-27T07:53:11.968Z,-6.80
2018-02-27T07:55:40.233Z,-6.60
2018-02-27T07:58:07.849Z,-6.70
2018-02-27T08:00:35.430Z,-6.60
2018-02-27T08:03:03.019Z,-6.50
2018-02-27T08:05:30.589Z,-6.40
2018-02-27T08:07:58.442Z,-6.30
2018-02-27T08:10:26.014Z,-6.50
2018-02-27T08:12:53.621Z,-6.30
2018-02-27T08:15:21.956Z,-6.00
2018-02-27T08:17:49.556Z,-6.00
2018-02-27T08:20:17.351Z,-5.90
2018-02-27T08:22:44.933Z,-5.80
2018-02-27T08:25:12.498Z,-5.80
2018-02-27T08:27:40.147Z,-5.70
2018-02-27T08:30:07.726Z,-5.50
2018-02-27T08:32:35.288Z,-5.60
2018-02-27T08:35:02.881Z,-5.70
2018-02-27T08:37:30.451Z,-5.60
2018-02-27T08:39:58.049Z,-5.60
2018-02-27T08:42:25.623Z,-5.50
2018-02-27T08:44:53.215Z,-5.40
2018-02-27T08:47:21.558Z,-5.50
2018-02-27T08:49:49.152Z,-5.50
2018-02-27T08:52:16.731Z,-5.70
2018-02-27T08:54:44.337Z,-5.60
2018-02-27T08:57:11.902Z,-5.50
2018-02-27T08:59:39.496Z,-5.60
2018-02-27T09:02:07.888Z,-5.50
2018-02-27T09:04:35.476Z,-5.60
2018-02-27T09:07:03.046Z,-5.50
2018-02-27T09:09:30.641Z,-5.70
2018-02-27T09:11:58.972Z,-5.40
2018-02-27T09:14:26.558Z,-5.40
2018-02-27T09:16:54.137Z,-5.30
2018-02-27T09:19:22.528Z,-5.10
2018-02-27T09:21:50.861Z,-5.10
2018-02-27T09:24:18.516Z,-5.10
2018-02-27T09:26:46.095Z,-4.90
2018-02-27T09:29:13.688Z,-4.90
2018-02-27T09:31:42.021Z,-4.80
2018-02-27T09:34:09.621Z,-4.90
2018-02-27T09:36:37.191Z,-4.70
2018-02-27T09:39:04.776Z,-4.80
2018-02-27T09:41:32.341Z,-4.60
2018-02-27T09:43:59.932Z,-4.60
2018-02-27T09:46:27.514Z,-4.60
2018-02-27T09:48:55.108Z,-4.50
2018-02-27T09:51:22.685Z,-4.40
2018-02-27T09:53:50.328Z,-4.10
2018-02-27T09:56:17.897Z,-4.30
2018-02-27T09:58:45.509Z,-3.90
2018-02-27T10:01:13.851Z,-3.70
2018-02-27T10:03:41.431Z,-3.70
2018-02-27T10:06:09.795Z,-3.40
2018-02-27T10:08:37.368Z,-3.50
2018-02-27T10:11:05.005Z,-3.20
2018-02-27T10:13:32.565Z,-3.10
2018-02-27T10:16:00.916Z,-3.40
2018-02-27T10:18:28.496Z,-3.50
2018-02-27T10:20:56.084Z,-3.30
2018-02-27T10:23:23.656Z,-3.40
2018-02-27T10:25:51.254Z,-3.30
2018-02-27T10:28:18.823Z,-3.80
2018-02-27T10:30:46.426Z,-3.60
2018-02-27T10:33:14.756Z,-3.70
2018-02-27T10:35:42.345Z,-3.70
2018-02-27T10:38:09.957Z,-3.60
2018-02-27T10:40:37.588Z,-3.60
2018-02-27T10:43:05.140Z,-3.80
2018-02-27T10:45:32.746Z,-3.60
2018-02-27T10:48:00.317Z,-3.60
2018-02-27T10:50:27.913Z,-3.10
2018-02-27T10:52:56.248Z,-2.60
2018-02-27T10:55:23.829Z,-2.60
2018-02-27T10:57:51.398Z,-2.10
2018-02-27T11:00:24.648Z,-1.90
2018-02-27T11:02:52.218Z,-1.20
2018-02-27T11:05:19.805Z,-0.90
2018-02-27T11:07:47.365Z,-0.40
2018-02-27T11:10:14.948Z,-0.30
2018-02-27T11:12:43.282Z,0.70
2018-02-27T11:15:10.873Z,0.60
2018-02-27T11:17:38.437Z,0.90
2018-02-27T11:20:06.022Z,0.90
2018-02-27T11:22:33.590Z,0.80
2018-02-27T11:25:02.052Z,0.50
2018-02-27T11:27:29.619Z,0.70
2018-02-27T11:29:57.200Z,0.40
2018-02-27T11:32:24.769Z,0.30
2018-02-27T11:34:52.356Z,0.20
2018-02-27T11:37:19.953Z,-0.30
2018-02-27T11:39:47.807Z,-0.40
2018-02-27T11:42:16.164Z,-0.80
2018-02-27T11:44:43.745Z,-0.80
2018-02-27T11:47:11.335Z,-0.80
2018-02-27T11:49:38.902Z,-1.20
2018-02-27T11:52:06.488Z,-1.10
2018-02-27T11:54:34.064Z,-1.20
2018-02-27T11:57:02.422Z,-1.20
2018-02-27T11:59:29.994Z,-1.20
2018-02-27T12:01:57.591Z,-1.00
2018-02-27T12:04:25.355Z,-1.20
2018-02-27T12:06:53.161Z,-1.30
2018-02-27T12:09:20.741Z,-1.50
2018-02-27T12:11:48.348Z,-1.50
2018-02-27T12:14:15.911Z,-1.70
2018-02-27T12:16:43.500Z,-1.70
2018-02-27T12:19:11.074Z,-1.60
2018-02-27T12:21:38.741Z,-1.70
2018-02-27T12:24:06.318Z,-1.50
2018-02-27T12:26:34.682Z,-1.70
2018-02-27T12:29:03.031Z,-1.70
2018-02-27T12:31:30.626Z,-1.80
2018-02-27T12:33:58.197Z,-1.70
2018-02-27T12:36:25.783Z,-1.80
2018-02-27T12:38:53.470Z,-1.90
2018-02-27T12:41:21.062Z,-1.90
2018-02-27T12:43:48.638Z,-2.10
2018-02-27T12:46:16.242Z,-2.10
2018-02-27T12:48:43.814Z,-2.20
2018-02-27T12:51:11.414Z,-2.30
2018-02-27T12:53:39.749Z,-2.10
2018-02-27T12:56:07.333Z,-2.10
2018-02-27T12:58:35.681Z,-2.10
2018-02-27T13:01:03.268Z,-2.10
2018-02-27T13:03:30.850Z,-2.30
2018-02-27T13:05:58.446Z,-2.50
2018-02-27T13:08:26.009Z,-2.80
2018-02-27T13:10:53.596Z,-2.50
2018-02-27T13:13:21.164Z,-2.80
2018-02-27T13:15:48.732Z,-2.70
2018-02-27T13:18:17.093Z,-2.70
2018-02-27T13:20:44.669Z,-2.70
2018-02-27T13:23:12.270Z,-2.60
2018-02-27T13:25:39.832Z,-2.50
2018-02-27T13:28:07.416Z,-2.50
2018-02-27T13:30:34.986Z,-2.40
2018-02-27T13:33:02.584Z,-2.50
2018-02-27T13:35:31.033Z,-2.40
2018-02-27T13:37:59.262Z,-2.50
2018-02-27T13:40:26.824Z,-2.60
2018-02-27T13:42:54.436Z,-2.70
2018-02-27T13:45:22.770Z,-2.70
2018-02-27T13:47:50.397Z,-2.70
2018-02-27T13:50:17.966Z,-2.80
2018-02-27T13:52:45.554Z,-2.70
2018-02-27T13:55:13.134Z,-2.80
2018-02-27T13:57:40.734Z,-2.70
2018-02-27T14:00:08.309Z,-2.60
2018-02-27T14:02:35.915Z,-2.50
2018-02-27T14:05:03.485Z,-2.60
2018-02-27T14:07:31.077Z,-2.50
2018-02-27T14:09:58.653Z,-2.60
2018-02-27T14:12:26.249Z,-2.70
2018-02-27T14:14:53.821Z,-2.60
2018-02-27T14:17:22.186Z,-2.60
2018-02-27T14:19:49.761Z,-2.70
2018-02-27T14:22:17.358Z,-2.60
2018-02-27T14:24:44.920Z,-2.50
2018-02-27T14:27:12.521Z,-2.60
2018-02-27T14:29:40.097Z,-2.60
2018-02-27T14:32:08.462Z,-2.60
2018-02-27T14:34:36.029Z,-2.60
2018-02-27T14:37:04.385Z,-2.60
2018-02-27T14:39:31.988Z,-2.60
2018-02-27T14:41:59.602Z,-2.90
2018-02-27T14:44:27.172Z,-2.80
2018-02-27T14:46:54.830Z,-2.90
2018-02-27T14:49:22.420Z,-2.90
2018-02-27T14:53:22.706Z,-2.90
2018-02-27T14:55:50.277Z,-2.90
2018-02-27T14:58:17.884Z,-2.90
2018-02-27T15:00:45.465Z,-3.00
2018-02-27T15:03:13.055Z,-3.00
2018-02-27T15:05:40.630Z,-3.00
2018-02-27T15:08:09.000Z,-3.00
2018-02-27T15:10:36.576Z,-3.00
2018-02-27T15:13:04.164Z,-3.00
2018-02-27T15:15:31.779Z,-3.00
2018-02-27T15:17:59.351Z,-2.90
2018-02-27T15:20:26.932Z,-3.00
2018-02-27T15:22:54.521Z,-3.00
2018-02-27T15:25:22.102Z,-2.90
2018-02-27T15:27:50.242Z,-3.10
2018-02-27T15:30:17.824Z,-3.20
2018-02-27T15:32:45.429Z,-3.20
2018-02-27T15:35:13.761Z,-3.20
2018-02-27T15:37:41.362Z,-3.30
2018-02-27T15:40:08.956Z,-3.10
2018-02-27T15:42:36.598Z,-3.20
2018-02-27T15:45:04.177Z,-3.10
2018-02-27T15:47:31.785Z,-3.20
2018-02-27T15:49:59.362Z,-3.30
2018-02-27T15:52:26.936Z,-3.20
2018-02-27T15:54:54.544Z,-3.00
2018-02-27T15:57:22.120Z,-3.20
2018-02-27T15:59:49.731Z,-3.30
2018-02-27T16:02:17.312Z,-3.20
2018-02-27T16:04:44.909Z,-3.10
2018-02-27T16:07:13.250Z,-3.00
2018-02-27T16:09:40.842Z,-3.00
2018-02-27T16:12:08.437Z,-3.00
2018-02-27T16:14:36.030Z,-3.30
2018-02-27T16:17:03.608Z,-3.20
2018-02-27T16:19:31.221Z,-3.30
2018-02-27T16:21:58.887Z,-3.30
2018-02-27T16:24:26.481Z,-3.30
2018-02-27T16:26:54.069Z,-3.30
2018-02-27T16:29:22.428Z,-3.50
2018-02-27T16:31:50.783Z,-3.50
2018-02-27T16:34:18.377Z,-3.60
2018-02-27T16:36:45.964Z,-3.60
2018-02-27T16:39:13.552Z,-3.60
2018-02-27T16:41:41.142Z,-3.60
2018-02-27T16:44:08.778Z,-3.70
2018-02-27T16:46:36.393Z,-3.80
2018-02-27T16:49:03.980Z,-3.80
2018-02-27T16:51:31.544Z,-3.80
2018-02-27T16:53:59.136Z,-4.00
2018-02-27T16:56:26.709Z,-4.10
2018-02-27T16:58:55.078Z,-3.90
2018-02-27T17:01:23.473Z,-3.90
2018-02-27T17:03:51.093Z,-4.00
2018-02-27T17:06:18.657Z,-4.20
2018-02-27T17:08:46.252Z,-4.20
2018-02-27T17:11:13.821Z,-4.20
2018-02-27T17:13:42.413Z,-4.30
2018-02-27T17:16:09.993Z,-4.30
2018-02-27T17:18:37.600Z,-4.40
2018-02-27T17:21:05.177Z,-4.50
2018-02-27T17:23:33.552Z,-4.80
2018-02-27T17:26:01.128Z,-4.80
2018-02-27T17:28:28.709Z,-4.70
2018-02-27T17:30:56.358Z,-4.60
2018-02-27T17:33:24.025Z,-4.80
2018-02-27T17:35:51.613Z,-4.80
2018-02-27T17:38:19.207Z,-4.60
2018-02-27T17:40:47.578Z,-4.70
2018-02-27T17:43:15.916Z,-4.70
2018-02-27T17:45:43.513Z,-4.70
2018-02-27T17:48:11.138Z,-4.70
2018-02-27T17:50:38.710Z,-4.90
2018-02-27T17:53:06.317Z,-4.90
2018-02-27T17:55:33.933Z,-4.90
2018-02-27T17:58:01.508Z,-5.10
2018-02-27T18:00:29.349Z,-4.80
2018-02-27T18:02:57.462Z,-4.80
2018-02-27T18:05:25.073Z,-4.90
2018-02-27T18:07:52.707Z,-5.10
2018-02-27T18:10:20.347Z,-5.10
2018-02-27T18:12:50.053Z,-5.20
2018-02-27T18:15:18.414Z,-5.40
2018-02-27T18:17:46.811Z,-5.30
2018-02-27T18:20:14.377Z,-5.30
2018-02-27T18:22:43.782Z,-5.10
2018-02-27T18:25:13.247Z,-5.20
2018-02-27T18:27:44.961Z,-5.10
2018-02-27T18:30:12.844Z,-5.10
2018-02-27T18:32:40.425Z,-5.40
2018-02-27T18:35:09.890Z,-5.40
2018-02-27T18:37:37.465Z,-5.50
2018-02-27T18:40:05.073Z,-5.50
2018-02-27T18:42:34.462Z,-5.50
2018-02-27T18:45:02.062Z,-5.70
2018-02-27T18:47:29.651Z,-5.60
2018-02-27T18:49:57.262Z,-5.70
2018-02-27T18:52:24.835Z,-5.80
2018-02-27T18:54:52.432Z,-5.70
2018-02-27T18:57:20.007Z,-5.90
2018-02-27T18:59:47.608Z,-5.90
2018-02-27T19:02:15.360Z,-6.00
2018-02-27T19:04:42.929Z,-5.70
2018-02-27T19:07:10.521Z,-5.90
2018-02-27T19:09:38.093Z,-6.00
2018-02-27T19:12:05.690Z,-6.10
2018-02-27T19:14:33.287Z,-6.20
2018-02-27T19:17:00.877Z,-6.20
2018-02-27T19:19:29.014Z,-6.20
2018-02-27T19:21:56.610Z,-6.30
2018-02-27T19:24:24.186Z,-6.20
2018-02-27T19:26:51.792Z,-6.30
2018-02-27T19:29:19.410Z,-6.20
2018-02-27T19:31:47.773Z,-6.20
2018-02-27T19:34:15.490Z,-6.20
2018-02-27T19:36:43.161Z,-6.10
2018-02-27T19:39:11.512Z,-6.20
2018-02-27T19:41:39.114Z,-6.20
2018-02-27T19:44:06.821Z,-6.40
2018-02-27T19:46:34.877Z,-6.40
2018-02-27T19:49:03.363Z,-6.20
2018-02-27T19:51:31.028Z,-6.20
2018-02-27T19:53:59.367Z,-6.20
2018-02-27T19:56:26.968Z,-6.20
2018-02-27T19:58:54.545Z,-6.30
2018-02-27T20:01:22.379Z,-6.30
2018-02-27T20:03:50.010Z,-6.30
2018-02-27T20:06:17.625Z,-6.30
2018-02-27T20:08:45.212Z,-6.30
2018-02-27T20:11:12.824Z,-6.30
2018-02-27T20:13:41.174Z,-6.30
2018-02-27T20:16:13.027Z,-6.30
2018-02-27T20:18:40.626Z,-6.40
2018-02-27T20:21:08.222Z,-6.20
2018-02-27T20:23:41.481Z,-6.40
2018-02-27T20:26:09.841Z,-6.30
2018-02-27T20:28:56.394Z,-6.40
2018-02-27T20:31:24.809Z,-6.50
2018-02-27T20:33:52.380Z,-6.50
2018-02-27T20:36:19.993Z,-6.50
2018-02-27T20:38:53.267Z,-6.40
2018-02-27T20:41:20.881Z,-6.40
2018-02-27T20:43:48.456Z,-6.50
2018-02-27T20:46:16.063Z,-6.40
2018-02-27T20:48:43.632Z,-6.50
2018-02-27T20:51:11.253Z,-6.40
2018-02-27T20:53:38.817Z,-6.50
2018-02-27T20:56:06.386Z,-6.60
2018-02-27T20:58:33.981Z,-6.70
2018-02-27T21:01:01.597Z,-6.80
2018-02-27T21:03:29.185Z,-6.70
2018-02-27T21:05:56.766Z,-6.50
2018-02-27T21:08:24.367Z,-6.60
2018-02-27T21:10:51.960Z,-6.70
2018-02-27T21:13:19.557Z,-6.70
2018-02-27T21:15:47.131Z,-6.90
2018-02-27T21:18:14.779Z,-6.90
2018-02-27T21:20:42.326Z,-6.90
2018-02-27T21:23:09.933Z,-6.90
2018-02-27T21:25:37.507Z,-7.10
2018-02-27T21:28:05.101Z,-7.20
2018-02-27T21:30:33.463Z,-7.40
2018-02-27T21:33:01.057Z,-7.40
2018-02-27T21:35:28.629Z,-7.50
2018-02-27T21:37:56.225Z,-7.50
2018-02-27T21:40:23.807Z,-7.50
2018-02-27T21:42:51.401Z,-7.60
2018-02-27T21:45:19.736Z,-7.70
2018-02-27T21:47:47.325Z,-7.70
2018-02-27T21:50:14.919Z,-7.60
2018-02-27T21:52:42.517Z,-7.60
2018-02-27T21:55:10.084Z,-7.80
2018-02-27T21:57:37.688Z,-7.80
2018-02-27T22:00:05.263Z,-7.90
2018-02-27T22:02:33.879Z,-8.10
2018-02-27T22:05:01.445Z,-8.10
2018-02-27T22:07:29.809Z,-8.10
2018-02-27T22:09:57.381Z,-8.10
2018-02-27T22:12:24.980Z,-8.00
2018-02-27T22:14:52.554Z,-8.20
2018-02-27T22:17:20.177Z,-7.90
2018-02-27T22:19:47.772Z,-8.10
2018-02-27T22:22:15.353Z,-8.10
2018-02-27T22:24:42.950Z,-8.20
2018-02-27T22:27:10.521Z,-8.00
2018-02-27T22:29:38.876Z,-8.40
2018-02-27T22:32:06.454Z,-8.40
2018-02-27T22:34:34.049Z,-8.10
2018-02-27T22:37:01.627Z,-8.20
2018-02-27T22:39:29.230Z,-8.30
2018-02-27T22:41:56.805Z,-8.30
2018-02-27T22:44:25.176Z,-8.10
2018-02-27T22:46:52.775Z,-8.10
2018-02-27T22:49:20.374Z,-8.20
2018-02-27T22:51:47.959Z,-8.20
2018-02-27T22:54:15.560Z,-8.20
2018-02-27T22:56:43.143Z,-8.30
2018-02-27T22:59:10.742Z,-8.30
2018-02-27T23:01:38.314Z,-8.20
2018-02-27T23:04:05.914Z,-8.20
2018-02-27T23:06:33.485Z,-8.30
2018-02-27T23:09:01.084Z,-8.40
2018-02-27T23:11:29.423Z,-8.50
2018-02-27T23:13:57.025Z,-8.50
2018-02-27T23:16:24.589Z,-8.50
2018-02-27T23:18:52.190Z,-8.50
2018-02-27T23:21:19.765Z,-8.60
2018-02-27T23:23:50.138Z,-8.40
2018-02-27T23:26:18.814Z,-8.60
2018-02-27T23:28:46.485Z,-8.80
2018-02-27T23:31:14.141Z,-8.60
2018-02-27T23:33:42.796Z,-8.50
2018-02-27T23:36:10.388Z,-8.40
2018-02-27T23:38:37.969Z,-8.50
2018-02-27T23:41:05.566Z,-8.50
2018-02-27T23:43:33.139Z,-8.70
2018-02-27T23:46:01.519Z,-8.60
2018-02-27T23:48:29.089Z,-8.70
2018-02-27T23:50:56.688Z,-8.70
2018-02-27T23:53:24.263Z,-8.80
2018-02-27T23:55:53.367Z,-8.60
2018-02-27T23:58:20.958Z,-8.60
